Time;durP1;ratioP1;P1;durP2;ratioP2;P2;SDS_P1;SDS_P2;PMS_P1;PMS_P2;Temp;Humidity;BMP_temperature;BMP_pressure;BME280_temperature;BME280_humidity;BME280_pressure;Samples;Min_cycle;Max_cycle;Signal;HPM_P1;HPM_P2
2023/01/23 00:02:06;;;;;;;;;;;;;;;;;;;;;
2023/01/23 00:43:52;;;;;;;25.80;16.02;;;3.40;1.00;;;;;;6026993;22;5521275;-91
2023/01/23 00:46:35;;;;;;;25.80;16.77;;;3.30;1.00;;;;;;6235270;22;20212;-90
2023/01/23 00:55:14;;;;;;;28.58;17.45;;;3.30;1.00;;;;;;6228400;22;20292;-90
2023/01/23 00:57:59;;;;;;;;;;;;;;;;;;;;;
2023/01/23 01:01:04;;;;;;;24.90;15.50;;;3.20;1.00;;;;;;6201859;22;41336;-89
2023/01/23 01:03:57;;;;;;;;;;;;;;;;;;;;;
2023/01/23 01:06:34;;;;;;;25.98;16.45;;;3.20;1.00;;;;;;6219009;22;48803;-89
2023/01/23 01:09:25;;;;;;;26.27;16.63;;;3.20;1.00;;;;;;6224548;22;20215;-90
2023/01/23 01:12:18;;;;;;;;;;;;;;;;;;;;;
2023/01/23 01:14:54;;;;;;;27.60;16.13;;;3.30;1.00;;;;;;6198268;22;20782;-90
2023/01/23 01:17:45;;;;;;;27.95;16.13;;;3.20;1.00;;;;;;6224104;22;20208;-90
2023/01/23 01:20:36;;;;;;;27.83;17.67;;;3.10;1.00;;;;;;6219580;22;20354;-90
2023/01/23 01:23:06;;;;;;;27.52;16.05;;;3.10;1.00;;;;;;6203507;22;20213;-89
2023/01/23 01:25:43;;;;;;;29.33;16.30;;;3.10;1.00;;;;;;6212454;22;20208;-89
2023/01/23 01:28:29;;;;;;;26.50;16.90;;;3.10;1.00;;;;;;6214358;22;20223;-89
2023/01/23 01:31:05;;;;;;;28.60;16.88;;;3.00;1.00;;;;;;6211501;22;20974;-89
2023/01/23 01:33:44;;;;;;;28.70;17.33;;;3.00;1.00;;;;;;6215226;22;20612;-90
2023/01/23 01:36:38;;;;;;;;;;;;;;;;;;;;;
2023/01/23 01:39:15;;;;;;;30.45;17.75;;;3.10;1.00;;;;;;6070880;23;51962;-89
2023/01/23 01:42:28;;;;;;;;;;;;;;;;;;;;;
2023/01/23 01:45:08;;;;;;;;;;;;;;;;;;;;;
2023/01/23 01:47:47;;;;;;;;;;;;;;;;;;;;;
2023/01/23 01:50:35;;;;;;;28.70;17.40;;;3.10;1.00;;;;;;6209990;22;37700;-88
2023/01/23 01:53:16;;;;;;;26.33;16.42;;;3.10;1.00;;;;;;6227357;22;20193;-86
2023/01/23 01:56:07;;;;;;;27.90;16.08;;;3.10;1.00;;;;;;6196223;22;20241;-90
2023/01/23 01:58:44;;;;;;;27.13;16.58;;;3.10;1.00;;;;;;6181833;22;20218;-90
2023/01/23 02:01:55;;;;;;;27.38;17.05;;;3.10;1.00;;;;;;6207461;22;20208;-89
2023/01/23 02:04:43;;;;;;;23.80;15.80;;;3.20;1.00;;;;;;6209013;22;20208;-88
2023/01/23 02:07:32;;;;;;;29.08;17.45;;;3.30;1.00;;;;;;6209846;22;20209;-89
2023/01/23 02:13:32;;;;;;;27.75;17.13;;;3.30;1.00;;;;;;6170905;22;20208;-88
2023/01/23 02:16:21;;;;;;;27.52;17.05;;;3.20;1.00;;;;;;6200690;22;20252;-89
2023/01/23 02:21:45;;;;;;;28.33;18.15;;;3.20;1.00;;;;;;6194800;22;20244;-90
2023/01/23 02:24:44;;;;;;;29.40;17.35;;;3.20;1.00;;;;;;6198825;22;20209;-90
2023/01/23 02:27:28;;;;;;;28.92;17.65;;;3.30;1.00;;;;;;6063430;23;20267;-90
2023/01/23 02:30:35;;;;;;;28.80;17.23;;;3.30;1.00;;;;;;6121520;22;20260;-89
2023/01/23 02:33:46;;;;;;;;;;;;;;;;;;;;;
2023/01/23 02:36:24;;;;;;;30.08;17.45;;;3.20;1.00;;;;;;6207463;22;51382;-89
2023/01/23 02:39:06;;;;;;;26.75;17.73;;;3.10;1.00;;;;;;6183535;22;20202;-89
2023/01/23 02:41:59;;;;;;;;;;;;;;;;;;;;;
2023/01/23 02:44:35;;;;;;;30.75;18.42;;;3.10;1.00;;;;;;6202527;22;40804;-89
2023/01/23 02:47:24;;;;;;;31.48;18.35;;;3.10;1.00;;;;;;6187991;22;20231;-89
2023/01/23 02:50:05;;;;;;;29.52;17.02;;;3.10;1.00;;;;;;6210605;22;20205;-91
2023/01/23 02:52:46;;;;;;;30.52;19.92;;;3.10;1.00;;;;;;6194497;22;20213;-89
2023/01/23 02:55:36;;;;;;;28.77;17.42;;;3.10;1.00;;;;;;6214931;22;20204;-90
2023/01/23 03:01:09;;;;;;;;;;;;;;;;;;;;;
2023/01/23 03:03:36;;;;;;;27.85;18.30;;;3.10;1.00;;;;;;6188927;22;39007;-90
2023/01/23 03:06:10;;;;;;;28.75;17.77;;;3.00;1.00;;;;;;6195054;22;20690;-90
2023/01/23 03:08:47;;;;;;;28.92;18.45;;;3.10;1.00;;;;;;6175397;22;20229;-90
2023/01/23 03:11:26;;;;;;;31.30;18.08;;;3.10;1.00;;;;;;6193319;22;20303;-90
2023/01/23 03:14:05;;;;;;;27.73;17.60;;;3.10;1.00;;;;;;6204960;22;20923;-90
2023/01/23 03:16:48;;;;;;;;;;;;;;;;;;;;;
2023/01/23 03:22:25;;;;;;;30.33;17.33;;;3.10;1.00;;;;;;6163701;22;20220;-90
2023/01/23 03:24:58;;;;;;;28.88;16.55;;;3.10;1.00;;;;;;6200028;22;20255;-90
2023/01/23 03:27:39;;;;;;;;;;;;;;;;;;;;;
2023/01/23 03:30:15;;;;;;;26.70;16.42;;;3.10;1.00;;;;;;6128807;22;48307;-90
2023/01/23 03:32:55;;;;;;;29.05;17.42;;;3.10;1.00;;;;;;6185656;22;20241;-89
2023/01/23 03:35:36;;;;;;;28.88;18.63;;;3.10;1.00;;;;;;6200596;22;20293;-90
2023/01/23 03:38:16;;;;;;;29.60;17.00;;;3.10;1.00;;;;;;6175112;22;20662;-89
2023/01/23 03:43:57;;;;;;;26.63;16.48;;;3.10;1.00;;;;;;6202944;22;20970;-90
2023/01/23 03:46:25;;;;;;;29.42;17.65;;;3.20;1.00;;;;;;6183104;22;20213;-89
2023/01/23 03:49:13;;;;;;;31.10;18.20;;;3.20;1.00;;;;;;6151587;22;25946;-89
2023/01/23 03:51:46;;;;;;;28.38;17.60;;;3.20;1.00;;;;;;6148384;22;20760;-89
2023/01/23 03:54:35;;;;;;;30.10;18.27;;;3.10;1.00;;;;;;6175832;22;20277;-89
2023/01/23 03:57:15;;;;;;;27.75;17.10;;;3.10;1.00;;;;;;6179911;22;20224;-88
2023/01/23 04:00:15;;;;;;;28.05;17.33;;;3.10;1.00;;;;;;6143728;22;20211;-89
2023/01/23 04:02:49;;;;;;;28.02;17.23;;;3.20;1.00;;;;;;6149234;23;20214;-90
2023/01/23 04:05:26;;;;;;;31.95;18.90;;;3.10;1.00;;;;;;6204930;22;20213;-90
2023/01/23 04:08:07;;;;;;;;;;;;;;;;;;;;;
2023/01/23 04:10:39;;;;;;;27.50;17.75;;;3.10;1.00;;;;;;6154733;22;39901;-88
2023/01/23 04:13:06;;;;;;;25.45;17.42;;;3.10;1.00;;;;;;6173558;23;20615;-89
2023/01/23 04:15:37;;;;;;;30.33;18.05;;;3.00;1.00;;;;;;6167601;22;20241;-89
2023/01/23 04:18:18;;;;;;;27.13;17.98;;;3.00;1.00;;;;;;6158182;23;20210;-89
2023/01/23 04:23:47;;;;;;;33.38;19.65;;;3.00;1.00;;;;;;6192011;22;20256;-89
2023/01/23 04:26:25;;;;;;;25.90;15.77;;;3.10;1.00;;;;;;6180623;22;20216;-90
2023/01/23 04:29:17;;;;;;;;;;;;;;;;;;;;;
2023/01/23 04:31:57;;;;;;;;;;;;;;;;;;;;;
2023/01/23 04:34:56;;;;;;;25.98;16.80;;;3.00;1.00;;;;;;6149378;23;40119;-88
2023/01/23 04:37:56;;;;;;;27.48;17.45;;;2.90;1.00;;;;;;6142995;22;20269;-89
2023/01/23 04:40:33;;;;;;;32.03;18.88;;;3.00;1.00;;;;;;6065891;23;20207;-90
2023/01/23 04:43:18;;;;;;;28.65;18.13;;;3.00;1.00;;;;;;6097679;23;20202;-90
2023/01/23 04:45:57;;;;;;;30.15;17.90;;;3.00;1.00;;;;;;6096768;23;20711;-88
2023/01/23 04:48:55;;;;;;;30.45;18.10;;;3.00;1.00;;;;;;6123164;23;20223;-89
2023/01/23 04:51:35;;;;;;;30.48;19.50;;;3.00;1.00;;;;;;6104980;23;20222;-89
2023/01/23 04:54:09;;;;;;;30.08;18.38;;;2.90;1.00;;;;;;6102728;23;20203;-89
2023/01/23 04:59:37;;;;;;;29.10;19.63;;;2.90;1.00;;;;;;6094946;23;20207;-89
2023/01/23 05:52:10;;;;;;;33.15;20.08;;;3.10;1.00;;;;;;6204382;22;20247;-81
2023/01/23 05:54:37;;;;;;;44.78;25.23;;;3.10;1.00;;;;;;6184437;22;20218;-82
2023/01/23 05:57:04;;;;;;;35.85;22.20;;;3.10;1.00;;;;;;6252473;22;20217;-81
2023/01/23 05:59:34;;;;;;;36.08;22.10;;;3.10;1.00;;;;;;6253396;22;20217;-82
2023/01/23 06:02:07;;;;;;;31.48;20.83;;;3.20;1.00;;;;;;6238295;22;20212;-81
2023/01/23 06:04:36;;;;;;;32.97;20.90;;;3.20;1.00;;;;;;6251199;22;20294;-80
2023/01/23 06:07:05;;;;;;;33.92;21.30;;;3.20;1.00;;;;;;6283042;22;20263;-81
2023/01/23 06:09:34;;;;;;;35.95;20.60;;;3.30;1.00;;;;;;6267842;22;20211;-83
2023/01/23 06:12:07;;;;;;;31.27;19.75;;;3.20;1.00;;;;;;6220201;23;20221;-82
2023/01/23 06:14:37;;;;;;;30.95;20.40;;;3.20;1.00;;;;;;6215966;22;20213;-83
2023/01/23 06:17:09;;;;;;;31.15;19.20;;;3.20;1.00;;;;;;6219649;22;20224;-82
2023/01/23 06:19:47;;;;;;;31.60;20.42;;;3.20;1.00;;;;;;6216195;22;20253;-82
2023/01/23 06:22:34;;;;;;;31.65;19.58;;;3.10;1.00;;;;;;6233577;22;20193;-83
2023/01/23 06:25:36;;;;;;;32.60;19.83;;;3.10;1.00;;;;;;6217846;22;20220;-84
2023/01/23 06:28:07;;;;;;;40.63;28.92;;;3.10;1.00;;;;;;6224068;22;20248;-82
2023/01/23 06:30:45;;;;;;;31.00;19.60;;;3.10;1.00;;;;;;6222704;22;20904;-83
2023/01/23 06:36:07;;;;;;;29.35;18.98;;;3.20;1.00;;;;;;6214813;22;20560;-83
2023/01/23 06:38:45;;;;;;;31.70;20.23;;;3.20;1.00;;;;;;6195920;22;20292;-83
2023/01/23 06:41:27;;;;;;;32.05;21.00;;;3.20;1.00;;;;;;6221842;22;20204;-82
2023/01/23 06:43:56;;;;;;;32.55;18.95;;;3.20;1.00;;;;;;6196983;22;20223;-81
2023/01/23 06:46:25;;;;;;;29.30;19.40;;;3.30;1.00;;;;;;6236273;22;20934;-83
2023/01/23 06:48:57;;;;;;;31.15;20.08;;;3.20;1.00;;;;;;6220777;22;20208;-84
2023/01/23 06:51:25;;;;;;;29.67;19.40;;;3.20;1.00;;;;;;6227312;22;20680;-81
2023/01/23 07:04:47;;;;;;;32.97;20.63;;;3.30;1.00;;;;;;6205335;22;20213;-85
2023/01/23 07:13:17;;;;;;;33.05;21.58;;;3.20;1.00;;;;;;6110607;22;20481;-86
2023/01/23 07:16:07;;;;;;;29.67;19.13;;;3.20;1.00;;;;;;6063401;23;20303;-84
2023/01/23 07:18:44;;;;;;;29.33;19.35;;;3.30;1.00;;;;;;6079742;23;20207;-89
2023/01/23 07:27:17;;;;;;;30.38;19.10;;;3.20;1.00;;;;;;6127812;23;20215;-87
2023/01/23 07:30:17;;;;;;;33.10;20.48;;;3.10;1.00;;;;;;6128049;23;20211;-86
2023/01/23 07:33:06;;;;;;;34.60;21.85;;;3.10;1.00;;;;;;6145471;23;20210;-86
2023/01/23 07:39:17;;;;;;;32.20;21.00;;;3.20;1.00;;;;;;6211914;22;20349;-88
2023/01/23 07:41:46;;;;;;;31.15;19.83;;;3.20;1.00;;;;;;6208860;22;20258;-84
2023/01/23 07:44:24;;;;;;;30.83;17.85;;;3.30;1.00;;;;;;6204688;22;20300;-85
2023/01/23 07:50:36;;;;;;;;;;;;;;;;;;;;;
2023/01/23 07:53:17;;;;;;;35.00;21.50;;;3.30;1.00;;;;;;6180440;22;49917;-83
2023/01/23 08:12:45;;;;;;;28.03;19.60;;;3.30;1.00;;;;;;5944133;22;6622781;-81
2023/01/23 08:18:16;;;;;;;31.23;19.27;;;3.50;1.00;;;;;;6136396;22;20696;-82
2023/01/23 08:21:07;;;;;;;31.38;18.17;;;3.40;1.00;;;;;;6183421;22;20217;-84
2023/01/23 08:23:36;;;;;;;37.85;20.58;;;3.40;1.00;;;;;;6203754;22;20329;-82
2023/01/23 08:26:17;;;;;;;29.05;19.05;;;3.40;1.00;;;;;;6211841;22;20221;-81
2023/01/23 08:28:47;;;;;;;31.45;19.58;;;3.40;1.00;;;;;;6178393;22;20220;-81
2023/01/23 08:31:18;;;;;;;32.42;20.50;;;3.40;1.00;;;;;;6216473;22;20216;-81
2023/01/23 08:33:45;;;;;;;35.05;20.40;;;3.50;1.00;;;;;;6203449;22;20218;-81
2023/01/23 08:36:15;;;;;;;29.25;18.48;;;3.50;1.00;;;;;;6190954;22;20213;-81
2023/01/23 08:38:45;;;;;;;31.50;18.92;;;3.60;1.00;;;;;;6175113;22;20232;-81
2023/01/23 08:41:12;;;;;;;29.50;19.35;;;3.50;1.00;;;;;;6224381;22;20213;-80
2023/01/23 08:43:40;;;;;;;28.85;19.55;;;3.40;1.00;;;;;;6203784;22;20210;-80
2023/01/23 08:46:10;;;;;;;33.83;20.38;;;3.40;1.00;;;;;;6205003;22;20257;-79
2023/01/23 08:48:42;;;;;;;34.45;19.58;;;3.30;1.00;;;;;;6189650;22;20292;-80
2023/01/23 08:51:18;;;;;;;33.67;19.73;;;3.40;1.00;;;;;;6201100;22;20212;-82
2023/01/23 08:53:45;;;;;;;33.13;20.30;;;3.50;1.00;;;;;;6191077;22;20268;-80
2023/01/23 08:56:22;;;;;;;31.17;18.80;;;3.40;1.00;;;;;;6197356;22;20214;-79
2023/01/23 08:59:00;;;;;;;34.53;20.88;;;3.30;1.00;;;;;;6180673;22;20251;-80
2023/01/23 09:01:29;;;;;;;35.60;21.95;;;3.30;1.00;;;;;;6186091;22;20241;-81
2023/01/23 09:03:57;;;;;;;32.45;19.50;;;3.30;1.00;;;;;;6161111;22;20296;-79
2023/01/23 09:06:25;;;;;;;36.33;19.65;;;3.30;1.00;;;;;;6195270;22;20678;-81
2023/01/23 09:08:54;;;;;;;31.65;18.60;;;3.30;1.00;;;;;;6176219;22;20219;-80
2023/01/23 09:11:36;;;;;;;34.80;20.75;;;3.40;1.00;;;;;;6194460;22;20261;-81
2023/01/23 09:14:05;;;;;;;37.60;21.30;;;3.40;1.00;;;;;;6183980;22;21013;-81
2023/01/23 09:16:40;;;;;;;33.15;20.20;;;3.30;1.00;;;;;;6185781;22;20194;-80
2023/01/23 09:19:09;;;;;;;28.20;18.60;;;3.30;1.00;;;;;;6171011;23;20300;-80
2023/01/23 09:21:37;;;;;;;32.30;20.23;;;3.40;1.00;;;;;;6197246;22;20993;-79
2023/01/23 09:24:06;;;;;;;38.78;20.20;;;3.40;1.00;;;;;;6203580;22;20721;-80
2023/01/23 09:26:36;;;;;;;33.47;17.90;;;3.40;1.00;;;;;;6193591;22;20218;-81
2023/01/23 09:29:03;;;;;;;27.73;17.40;;;3.40;1.00;;;;;;6184787;22;20213;-81
2023/01/23 09:31:36;;;;;;;29.08;19.58;;;3.50;1.00;;;;;;6190192;22;20250;-80
2023/01/23 09:34:06;;;;;;;31.10;18.83;;;3.50;1.00;;;;;;6186727;22;20217;-79
2023/01/23 09:36:35;;;;;;;31.60;17.70;;;3.50;1.00;;;;;;6197638;22;20834;-80
2023/01/23 09:39:02;;;;;;;31.50;19.35;;;3.60;1.00;;;;;;6196021;22;20213;-79
2023/01/23 09:41:33;;;;;;;31.77;18.50;;;3.60;1.00;;;;;;6195704;22;20301;-81
2023/01/23 09:44:15;;;;;;;29.27;19.13;;;3.60;1.00;;;;;;6181818;23;20201;-80
2023/01/23 09:46:58;;;;;;;32.58;19.17;;;3.70;1.00;;;;;;6169471;23;20285;-80
2023/01/23 09:49:29;;;;;;;34.53;20.38;;;3.70;1.00;;;;;;6196326;22;20939;-79
2023/01/23 09:52:01;;;;;;;34.42;20.38;;;3.60;1.00;;;;;;6203282;22;20300;-82
2023/01/23 09:55:01;;;;;;;34.38;19.90;;;3.60;1.00;;;;;;6191709;22;20218;-80
2023/01/23 09:57:45;;;;;;;33.97;19.98;;;3.60;1.00;;;;;;6144908;22;20206;-80
2023/01/23 10:00:22;;;;;;;33.05;19.52;;;3.60;1.00;;;;;;6167179;23;20214;-80
2023/01/23 10:02:50;;;;;;;33.22;20.17;;;3.70;1.00;;;;;;6165715;23;20218;-81
2023/01/23 10:05:18;;;;;;;35.47;20.90;;;3.80;1.00;;;;;;6148092;23;20918;-81
2023/01/23 10:08:01;;;;;;;34.78;20.33;;;3.80;1.00;;;;;;6151545;23;20215;-79
2023/01/23 10:10:56;;;;;;;31.38;19.63;;;3.90;1.00;;;;;;6181926;23;20214;-82
2023/01/23 10:13:35;;;;;;;30.27;19.52;;;4.00;1.00;;;;;;6195989;23;20222;-80
2023/01/23 10:16:16;;;;;;;31.73;20.30;;;4.10;1.00;;;;;;6194330;23;20198;-80
2023/01/23 10:19:05;;;;;;;34.63;20.33;;;4.00;1.00;;;;;;6195395;23;20218;-80
2023/01/23 10:21:45;;;;;;;34.75;19.02;;;4.00;1.00;;;;;;6196098;23;20856;-79
2023/01/23 10:34:37;;;;;;;;;;;;;;;;;;;;;
2023/01/23 10:41:12;;;;;;;33.10;20.90;;;3.90;1.00;;;;;;6034446;23;20227;-82
2023/01/23 10:43:27;;;;;;;33.20;18.48;;;4.00;1.00;;;;;;6053468;23;20236;-83
2023/01/23 10:46:07;;;;;;;31.15;20.23;;;4.10;1.00;;;;;;6064195;23;20213;-82
2023/01/23 10:48:51;;;;;;;31.45;19.75;;;4.00;1.00;;;;;;6154846;22;20213;-81
2023/01/23 10:51:56;;;;;;;31.73;18.85;;;4.00;1.00;;;;;;6193852;22;20209;-81
2023/01/23 10:58:07;;;;;;;;;;;;;;;;;;;;;
2023/01/23 11:03:47;;;;;;;30.10;18.95;;;4.00;1.00;;;;;;6080144;22;20242;-81
2023/01/23 11:06:18;;;;;;;34.97;21.65;;;4.00;1.00;;;;;;6215898;22;20214;-81
2023/01/23 11:08:56;;;;;;;31.27;21.05;;;4.10;1.00;;;;;;6180236;22;20277;-82
2023/01/23 11:11:25;;;;;;;29.88;20.55;;;4.20;1.00;;;;;;6191357;22;20280;-82
2023/01/23 11:14:11;;;;;;;28.80;18.98;;;4.30;1.00;;;;;;6183493;22;20281;-81
2023/01/23 11:17:06;;;;;;;30.60;18.95;;;4.40;1.00;;;;;;6211454;22;20540;-80
2023/01/23 11:19:37;;;;;;;28.38;19.65;;;4.40;1.00;;;;;;6181259;22;20535;-80
2023/01/23 11:22:43;;;;;;;30.33;19.17;;;4.50;1.00;;;;;;6190303;22;20356;-81
2023/01/23 11:25:29;;;;;;;30.90;19.20;;;4.40;1.00;;;;;;6182617;22;20226;-81
2023/01/23 11:28:06;;;;;;;28.95;19.65;;;4.50;1.00;;;;;;6205348;22;20803;-81
2023/01/23 11:30:42;;;;;;;30.48;19.15;;;4.50;1.00;;;;;;6190978;22;21114;-80
2023/01/23 11:33:19;;;;;;;31.48;19.08;;;4.40;1.00;;;;;;6196167;22;20226;-81
2023/01/23 11:35:59;;;;;;;28.13;18.38;;;4.50;1.00;;;;;;6186426;22;20218;-81
2023/01/23 11:38:28;;;;;;;32.80;19.52;;;4.40;1.00;;;;;;6189571;22;20220;-81
2023/01/23 11:41:06;;;;;;;31.80;19.23;;;4.40;1.00;;;;;;6208554;22;20217;-84
2023/01/23 11:43:36;;;;;;;37.45;21.05;;;4.40;1.00;;;;;;6184791;22;20733;-85
2023/01/23 11:46:33;;;;;;;30.10;20.90;;;4.50;1.00;;;;;;6190160;22;20316;-83
2023/01/23 11:49:33;;;;;;;35.63;21.00;;;4.70;1.00;;;;;;6199950;22;20205;-82
2023/01/23 11:52:25;;;;;;;34.55;20.38;;;4.70;1.00;;;;;;6197083;22;20710;-82
2023/01/23 11:55:16;;;;;;;31.00;18.60;;;4.70;1.00;;;;;;6192003;22;20589;-80
2023/01/23 11:58:03;;;;;;;28.63;18.55;;;4.70;1.00;;;;;;6179215;22;20212;-84
2023/01/23 12:00:47;;;;;;;27.50;18.00;;;4.80;1.00;;;;;;6215342;22;20205;-83
2023/01/23 12:03:53;;;;;;;28.67;19.27;;;4.80;1.00;;;;;;6204245;22;20194;-81
2023/01/23 12:06:44;;;;;;;25.65;18.30;;;4.80;1.00;;;;;;6174421;22;20201;-81
2023/01/23 12:09:17;;;;;;;24.08;16.95;;;4.90;1.00;;;;;;6186308;22;20308;-82
2023/01/23 12:12:14;;;;;;;23.75;16.23;;;4.90;1.00;;;;;;6205974;22;20214;-83
2023/01/23 12:15:14;;;;;;;;;;;;;;;;;;;;;
2023/01/23 12:21:26;;;;;;;22.75;15.82;;;4.80;1.00;;;;;;6197705;22;20312;-82
2023/01/23 12:24:33;;;;;;;21.70;14.23;;;4.70;1.00;;;;;;6196257;22;20216;-82
2023/01/23 12:46:16;;;;;;;26.35;15.77;;;5.00;1.00;;;;;;6154809;22;22000;-80
2023/01/23 12:48:54;;;;;;;23.25;14.75;;;5.00;1.00;;;;;;6159130;23;20215;-82
2023/01/23 12:55:03;;;;;;;27.05;16.92;;;5.10;1.00;;;;;;6011691;23;20220;-82
2023/01/23 13:01:04;;;;;;;20.48;14.90;;;5.20;1.00;;;;;;6166840;23;20288;-81
2023/01/23 13:04:18;;;;;;;;;;;;;;;;;;;;;
2023/01/23 13:07:03;;;;;;;21.10;13.45;;;5.20;1.00;;;;;;6152684;23;50298;-84
2023/01/23 13:12:31;;;;;;;26.17;15.50;;;5.00;1.00;;;;;;6173545;23;20218;-82
2023/01/23 13:15:38;;;;;;;24.05;14.35;;;5.00;1.00;;;;;;6182315;23;20225;-85
2023/01/23 13:18:07;;;;;;;23.40;15.13;;;5.00;1.00;;;;;;6129385;23;20309;-85
2023/01/23 13:23:56;;;;;;;;;;;;;;;;;;;;;
2023/01/23 13:26:45;;;;;;;24.45;13.75;;;4.90;1.00;;;;;;6185766;23;39551;-82
2023/01/23 13:32:37;;;;;;;22.67;13.85;;;4.90;1.00;;;;;;6174290;23;20211;-82
2023/01/23 13:35:58;;;;;;;27.52;16.80;;;4.80;1.00;;;;;;6189412;23;20206;-82
2023/01/23 13:44:30;;;;;;;23.48;13.60;;;4.80;1.00;;;;;;6085619;23;20216;-82
2023/01/23 14:05:57;;;;;;;;;;;;;;;;;;;;;
2023/01/23 14:11:36;;;;;;;24.80;15.48;;;4.70;1.00;;;;;;6133179;23;20217;-85
2023/01/23 14:16:57;;;;;;;30.15;13.80;;;4.60;1.00;;;;;;6177071;23;20254;-84
2023/01/23 14:19:57;;;;;;;22.80;12.63;;;4.60;1.00;;;;;;6189870;23;20264;-82
2023/01/23 14:22:45;;;;;;;19.95;12.30;;;4.60;1.00;;;;;;6178515;23;20214;-83
2023/01/23 14:25:26;;;;;;;20.23;13.10;;;4.60;1.00;;;;;;6175255;23;20238;-81
2023/01/23 14:28:15;;;;;;;20.92;12.10;;;4.60;1.00;;;;;;6159533;23;20248;-83
2023/01/23 14:31:08;;;;;;;20.38;11.90;;;4.60;1.00;;;;;;6172979;23;21015;-84
2023/01/23 14:36:45;;;;;;;21.75;12.90;;;4.60;1.00;;;;;;6155521;23;20720;-81
2023/01/23 14:39:18;;;;;;;20.08;13.27;;;4.70;1.00;;;;;;6185507;23;20202;-83
2023/01/23 14:41:48;;;;;;;28.75;13.65;;;4.60;1.00;;;;;;6155283;23;20216;-82
2023/01/23 14:44:24;;;;;;;22.60;13.63;;;4.60;1.00;;;;;;6199594;23;20217;-84
2023/01/23 14:46:55;;;;;;;41.38;20.60;;;4.50;1.00;;;;;;6199076;23;20228;-84
2023/01/23 14:49:26;;;;;;;34.63;17.73;;;4.50;1.00;;;;;;6199176;23;20210;-81
2023/01/23 14:52:00;;;;;;;22.73;14.57;;;4.50;1.00;;;;;;6200226;23;20239;-84
2023/01/23 14:54:28;;;;;;;20.52;13.50;;;4.60;1.00;;;;;;6200986;23;20273;-84
2023/01/23 14:56:56;;;;;;;20.77;13.50;;;4.60;1.00;;;;;;6190848;23;20250;-85
2023/01/23 14:59:33;;;;;;;23.45;13.27;;;4.60;1.00;;;;;;6204845;22;20272;-85
2023/01/23 15:02:24;;;;;;;20.77;13.15;;;4.60;1.00;;;;;;6206216;22;20214;-83
2023/01/23 15:05:25;;;;;;;18.00;11.77;;;4.50;1.00;;;;;;6129911;23;20206;-83
2023/01/23 15:07:56;;;;;;;22.05;13.15;;;4.40;1.00;;;;;;6198510;23;20674;-83
2023/01/23 15:10:26;;;;;;;17.85;11.63;;;4.30;1.00;;;;;;6171363;23;20218;-84
2023/01/23 15:12:58;;;;;;;21.10;13.45;;;4.30;1.00;;;;;;6155042;23;20227;-81
2023/01/23 15:15:28;;;;;;;21.95;12.40;;;4.30;1.00;;;;;;6170137;23;20229;-84
2023/01/23 15:18:01;;;;;;;22.13;11.85;;;4.30;1.00;;;;;;6181795;23;20226;-80
2023/01/23 15:20:37;;;;;;;22.85;13.90;;;4.30;1.00;;;;;;6178920;23;20313;-83
2023/01/23 15:23:29;;;;;;;25.55;14.02;;;4.20;1.00;;;;;;6169842;23;20258;-83
2023/01/23 15:26:27;;;;;;;20.95;13.40;;;4.20;1.00;;;;;;6192150;23;20210;-84
2023/01/23 15:28:56;;;;;;;24.35;13.85;;;4.20;1.00;;;;;;6186834;22;20250;-84
2023/01/23 15:31:46;;;;;;;24.48;13.00;;;4.20;1.00;;;;;;6185354;23;20258;-83
2023/01/23 15:34:22;;;;;;;24.70;14.48;;;4.20;1.00;;;;;;6188111;23;20316;-83
2023/01/23 15:36:58;;;;;;;21.30;13.68;;;4.10;1.00;;;;;;6201829;23;20380;-84
2023/01/23 15:39:28;;;;;;;21.80;14.68;;;4.10;1.00;;;;;;6200506;23;20296;-84
2023/01/23 15:41:57;;;;;;;25.55;15.90;;;4.10;1.00;;;;;;6197896;23;20221;-84
2023/01/23 15:44:28;;;;;;;27.63;15.50;;;4.10;1.00;;;;;;6199726;23;20209;-83
2023/01/23 15:46:59;;;;;;;24.88;15.75;;;4.10;1.00;;;;;;6196875;23;20266;-84
2023/01/23 15:49:27;;;;;;;26.92;16.92;;;4.10;1.00;;;;;;6188720;23;20206;-84
2023/01/23 15:52:01;;;;;;;26.73;16.30;;;4.10;1.00;;;;;;6197499;23;20210;-83
2023/01/23 15:54:32;;;;;;;29.05;17.88;;;4.20;1.00;;;;;;6197025;23;20205;-82
2023/01/23 15:57:00;;;;;;;30.27;15.98;;;4.20;1.00;;;;;;6195019;22;20234;-82
2023/01/23 15:59:28;;;;;;;25.02;15.00;;;4.10;1.00;;;;;;6194273;23;20249;-80
2023/01/23 16:01:59;;;;;;;27.08;16.85;;;4.10;1.00;;;;;;6192257;23;20214;-82
2023/01/23 16:04:26;;;;;;;25.20;14.15;;;4.10;1.00;;;;;;6194350;23;20343;-82
2023/01/23 16:06:53;;;;;;;24.77;14.48;;;4.20;1.00;;;;;;6193964;22;20218;-82
2023/01/23 16:09:25;;;;;;;21.27;15.45;;;4.20;1.00;;;;;;6195192;23;20689;-84
2023/01/23 16:11:53;;;;;;;27.88;15.00;;;4.20;1.00;;;;;;6193482;23;20237;-84
2023/01/23 16:14:22;;;;;;;23.83;13.73;;;4.10;1.00;;;;;;6180223;23;21051;-83
2023/01/23 16:16:49;;;;;;;21.33;13.73;;;4.10;1.00;;;;;;6191643;23;20249;-84
2023/01/23 16:19:18;;;;;;;23.35;13.93;;;4.10;1.00;;;;;;6194545;22;20218;-82
2023/01/23 16:21:45;;;;;;;23.65;15.18;;;4.10;1.00;;;;;;6196073;23;20255;-84
2023/01/23 16:24:21;;;;;;;20.77;13.77;;;4.10;1.00;;;;;;6197355;23;20213;-83
2023/01/23 16:26:55;;;;;;;21.55;14.65;;;4.10;1.00;;;;;;6196463;22;20252;-82
2023/01/23 16:29:26;;;;;;;19.90;13.75;;;4.10;1.00;;;;;;6192423;23;20536;-83
2023/01/23 16:31:53;;;;;;;26.20;15.52;;;4.10;1.00;;;;;;6193899;22;21020;-84
2023/01/23 16:34:22;;;;;;;19.35;14.35;;;4.10;1.00;;;;;;6192429;22;20218;-82
2023/01/23 16:36:51;;;;;;;22.98;14.63;;;4.10;1.00;;;;;;6181415;23;20206;-83
2023/01/23 16:39:20;;;;;;;23.60;14.60;;;4.10;1.00;;;;;;6197689;22;20682;-83
2023/01/23 16:41:47;;;;;;;25.38;15.20;;;4.00;1.00;;;;;;6199458;23;20924;-82
2023/01/23 16:44:17;;;;;;;24.67;14.65;;;4.10;1.00;;;;;;6195930;22;20210;-81
2023/01/23 16:46:44;;;;;;;26.73;16.17;;;4.10;1.00;;;;;;6192478;23;20214;-85
2023/01/23 16:49:12;;;;;;;24.55;16.10;;;4.10;1.00;;;;;;6193488;22;20319;-83
2023/01/23 16:51:46;;;;;;;20.90;13.07;;;4.10;1.00;;;;;;6194329;23;20215;-82
2023/01/23 16:54:17;;;;;;;22.48;13.95;;;4.00;1.00;;;;;;6196296;23;20210;-83
2023/01/23 16:56:46;;;;;;;18.90;12.55;;;4.00;1.00;;;;;;6192927;23;20207;-82
2023/01/23 16:59:18;;;;;;;20.75;14.07;;;4.00;1.00;;;;;;6198394;23;20206;-81
2023/01/23 17:01:47;;;;;;;22.63;13.55;;;3.90;1.00;;;;;;6194837;23;20198;-83
2023/01/23 17:04:17;;;;;;;19.92;13.27;;;3.90;1.00;;;;;;6195397;23;20218;-82
2023/01/23 17:06:46;;;;;;;23.38;13.68;;;3.90;1.00;;;;;;6198360;22;20214;-81
2023/01/23 17:09:14;;;;;;;23.15;14.50;;;3.90;1.00;;;;;;6193742;22;20242;-80
2023/01/23 17:11:43;;;;;;;27.70;16.60;;;3.90;1.00;;;;;;6191128;23;20972;-80
2023/01/23 17:17:16;;;;;;;21.08;13.65;;;3.90;1.00;;;;;;6145206;23;20214;-80
2023/01/23 17:19:52;;;;;;;25.23;14.80;;;3.80;1.00;;;;;;6177720;23;20212;-83
2023/01/23 17:22:24;;;;;;;25.13;14.82;;;3.80;1.00;;;;;;6181972;23;20194;-82
2023/01/23 17:24:57;;;;;;;23.20;15.48;;;3.90;1.00;;;;;;6160545;23;20362;-86
2023/01/23 17:27:26;;;;;;;20.35;13.85;;;3.80;1.00;;;;;;6181863;23;20210;-87
2023/01/23 17:29:56;;;;;;;22.23;14.18;;;3.80;1.00;;;;;;6151208;23;21002;-81
2023/01/23 17:32:32;;;;;;;21.77;15.18;;;3.90;1.00;;;;;;6196063;23;21005;-84
2023/01/23 17:35:01;;;;;;;25.70;14.93;;;3.90;1.00;;;;;;6181111;23;20224;-83
2023/01/23 17:37:30;;;;;;;25.27;14.93;;;3.80;1.00;;;;;;6198010;23;20210;-80
2023/01/23 17:39:57;;;;;;;22.92;14.40;;;3.90;1.00;;;;;;6191308;23;20977;-85
2023/01/23 17:42:24;;;;;;;19.52;13.07;;;3.90;1.00;;;;;;6195670;23;20291;-84
2023/01/23 17:44:56;;;;;;;21.70;14.18;;;3.90;1.00;;;;;;6201922;22;20269;-83
2023/01/23 17:47:24;;;;;;;24.15;15.10;;;3.80;1.00;;;;;;6192372;22;20245;-83
2023/01/23 17:49:53;;;;;;;23.63;15.35;;;3.70;1.00;;;;;;6190581;22;20218;-84
2023/01/23 17:52:20;;;;;;;23.85;14.95;;;3.70;1.00;;;;;;6194171;23;20206;-81
2023/01/23 17:54:50;;;;;;;21.88;13.43;;;3.70;1.00;;;;;;6193937;22;20259;-82
2023/01/23 17:57:17;;;;;;;25.67;14.75;;;3.70;1.00;;;;;;6195750;22;20256;-82
2023/01/23 17:59:44;;;;;;;24.65;14.48;;;3.70;1.00;;;;;;6165599;23;20801;-82
2023/01/23 18:02:25;;;;;;;21.23;14.18;;;3.70;1.00;;;;;;6178812;22;20217;-82
2023/01/23 18:04:54;;;;;;;20.55;13.73;;;3.60;1.00;;;;;;6175197;23;20269;-82
2023/01/23 18:07:28;;;;;;;24.02;16.90;;;3.70;1.00;;;;;;6161785;23;20214;-80
2023/01/23 18:09:57;;;;;;;25.15;14.90;;;3.60;1.00;;;;;;6149539;23;20984;-81
2023/01/23 18:12:36;;;;;;;24.80;15.00;;;3.60;1.00;;;;;;6189036;23;20205;-81
2023/01/23 18:15:15;;;;;;;24.00;14.90;;;3.50;1.00;;;;;;6158932;23;20225;-81
2023/01/23 18:18:09;;;;;;;26.25;15.52;;;3.60;1.00;;;;;;6147714;23;20238;-81
2023/01/23 18:20:40;;;;;;;22.45;13.88;;;3.60;1.00;;;;;;6151081;23;20921;-81
2023/01/23 18:23:11;;;;;;;23.17;14.98;;;3.60;1.00;;;;;;6164859;23;20737;-81
2023/01/23 18:25:54;;;;;;;24.23;15.82;;;3.70;1.00;;;;;;6186901;23;20522;-81
2023/01/23 18:28:26;;;;;;;20.05;13.80;;;3.70;1.00;;;;;;6176519;23;20931;-81
2023/01/23 18:31:07;;;;;;;24.17;15.40;;;3.70;1.00;;;;;;6148833;23;20222;-82
2023/01/23 18:33:49;;;;;;;26.83;15.85;;;3.60;1.00;;;;;;6163279;23;20218;-80
2023/01/23 18:36:33;;;;;;;24.88;15.68;;;3.50;1.00;;;;;;6165439;23;20214;-83